Time,TemperatureF,DewpointF,PressureIn,WindDirection,WindDirectionDegrees,WindSpeedMPH,WindSpeedGustMPH,Humidity,HourlyPrecipIn,Conditions,Clouds,dailyrainin,SoftwareType,DateUTC
2013-09-27 00:02:00,62.1,60.9,30.02,East,98,0.0,0.0,96,0.00,,,0.00,Wunderground v.1.15,2013-09-27 05:02:00,
2013-09-27 00:08:00,61.7,60.5,30.02,East,98,0.0,0.0,96,0.00,,,0.00,Wunderground v.1.15,2013-09-27 05:08:00,
2013-09-27 00:14:00,61.3,60.2,30.02,East,98,0.0,0.0,96,0.00,,,0.00,Wunderground v.1.15,2013-09-27 05:14:00,
2013-09-27 00:20:00,61.0,59.9,30.02,East,99,0.0,0.0,96,0.00,,,0.00,Wunderground v.1.15,2013-09-27 05:20:00,
2013-09-27 00:25:00,60.9,60.0,30.02,East,98,0.0,0.0,97,0.00,,,0.00,Wunderground v.1.15,2013-09-27 05:25:00,
2013-09-27 00:31:00,61.2,60.3,30.02,East,98,0.0,0.0,97,0.00,,,0.00,Wunderground v.1.15,2013-09-27 05:31:00,
2013-09-27 00:37:00,61.4,60.5,30.02,East,98,0.0,0.0,97,0.00,,,0.00,Wunderground v.1.15,2013-09-27 05:37:00,
2013-09-27 00:43:00,61.9,61.3,30.02,East,99,0.0,0.0,98,0.00,,,0.00,Wunderground v.1.15,2013-09-27 05:43:00,
2013-09-27 00:48:00,61.9,61.0,30.02,East,98,0.0,0.0,97,0.00,,,0.00,Wunderground v.1.15,2013-09-27 05:48:00,
2013-09-27 00:53:00,61.8,60.9,30.02,East,98,0.0,0.0,97,0.00,,,0.00,Wunderground v.1.15,2013-09-27 05:53:00,
2013-09-27 00:59:00,62.2,61.6,30.02,ESE,118,0.0,1.0,98,0.00,,,0.00,Wunderground v.1.15,2013-09-27 05:59:00,
2013-09-27 01:04:00,62.5,61.9,30.02,ESE,122,0.0,0.0,98,0.00,,,0.00,Wunderground v.1.15,2013-09-27 06:04:00,
2013-09-27 01:10:00,62.8,61.9,30.02,SE,128,0.0,0.0,97,0.00,,,0.00,Wunderground v.1.15,2013-09-27 06:10:00,
2013-09-27 01:16:00,63.0,61.8,30.02,SE,126,0.0,0.0,96,0.00,,,0.00,Wunderground v.1.15,2013-09-27 06:16:00,
2013-09-27 01:21:00,63.1,61.9,30.02,ESE,118,0.0,1.0,96,0.00,,,0.00,Wunderground v.1.15,2013-09-27 06:21:00,
2013-09-27 01:27:00,63.2,61.7,30.02,SE,144,0.0,1.0,95,0.00,,,0.00,Wunderground v.1.15,2013-09-27 06:27:00,
2013-09-27 01:33:00,63.0,61.2,30.03,SE,144,0.0,0.0,94,0.00,,,0.00,Wunderground v.1.15,2013-09-27 06:33:00,
2013-09-27 01:39:00,62.6,60.8,30.03,SE,144,0.0,0.0,94,0.00,,,0.00,Wunderground v.1.15,2013-09-27 06:39:00,
2013-09-27 01:44:00,62.5,61.0,30.03,SE,144,0.0,0.0,95,0.00,,,0.00,Wunderground v.1.15,2013-09-27 06:44:00,
2013-09-27 01:50:00,62.2,60.8,30.02,SE,143,0.0,0.0,95,0.00,,,0.00,Wunderground v.1.15,2013-09-27 06:50:00,
2013-09-27 01:56:00,62.0,60.6,30.02,SE,144,0.0,0.0,95,0.00,,,0.00,Wunderground v.1.15,2013-09-27 06:56:00,
2013-09-27 02:01:00,61.8,60.4,30.02,SE,144,0.0,0.0,95,0.00,,,0.00,Wunderground v.1.15,2013-09-27 07:01:00,
2013-09-27 02:06:00,61.6,60.4,30.02,SE,143,0.0,1.0,96,0.00,,,0.00,Wunderground v.1.15,2013-09-27 07:06:00,
2013-09-27 02:11:00,61.6,60.4,30.02,ESE,112,0.0,1.0,96,0.00,,,0.00,Wunderground v.1.15,2013-09-27 07:11:00,
2013-09-27 02:16:00,61.5,60.3,30.02,ESE,112,0.0,1.0,96,0.00,,,0.00,Wunderground v.1.15,2013-09-27 07:16:00,
2013-09-27 02:21:00,61.2,60.1,30.02,ESE,112,0.0,0.0,96,0.00,,,0.00,Wunderground v.1.15,2013-09-27 07:21:00,
2013-09-27 02:26:00,61.1,60.0,30.02,ESE,112,0.0,1.0,96,0.00,,,0.00,Wunderground v.1.15,2013-09-27 07:26:00,
2013-09-27 02:31:00,61.0,59.9,30.02,ESE,112,0.0,0.0,96,0.00,,,0.00,Wunderground v.1.15,2013-09-27 07:31:00,
2013-09-27 02:36:00,60.8,59.7,30.02,ESE,111,0.0,0.0,96,0.00,,,0.00,Wunderground v.1.15,2013-09-27 07:36:00,
2013-09-27 02:41:00,60.5,59.1,30.02,ESE,112,0.0,0.0,95,0.00,,,0.00,Wunderground v.1.15,2013-09-27 07:41:00,
2013-09-27 02:46:00,60.1,58.7,30.02,ESE,112,0.0,0.0,95,0.00,,,0.00,Wunderground v.1.15,2013-09-27 07:46:00,
2013-09-27 02:49:00,59.8,58.4,30.02,ESE,112,0.0,0.0,95,0.00,,,0.00,Wunderground v.1.15,2013-09-27 07:49:00,
2013-09-27 02:54:00,59.8,58.7,30.02,ESE,112,0.0,0.0,96,0.00,,,0.00,Wunderground v.1.15,2013-09-27 07:54:00,
2013-09-27 02:59:00,59.8,58.7,30.02,ESE,112,0.0,0.0,96,0.00,,,0.00,Wunderground v.1.15,2013-09-27 07:59:00,
2013-09-27 03:05:00,59.9,59.0,30.02,ESE,112,0.0,0.0,97,0.00,,,0.00,Wunderground v.1.15,2013-09-27 08:05:00,
2013-09-27 03:10:00,59.8,58.9,30.02,ESE,112,0.0,0.0,97,0.00,,,0.00,Wunderground v.1.15,2013-09-27 08:10:00,
2013-09-27 03:15:00,59.8,58.9,30.02,ESE,112,0.0,1.0,97,0.00,,,0.00,Wunderground v.1.15,2013-09-27 08:15:00,
2013-09-27 03:20:00,59.6,58.7,30.02,ESE,112,0.0,0.0,97,0.00,,,0.00,Wunderground v.1.15,2013-09-27 08:20:00,
2013-09-27 03:25:00,59.6,58.7,30.02,ESE,112,0.0,1.0,97,0.00,,,0.00,Wunderground v.1.15,2013-09-27 08:25:00,
2013-09-27 03:30:00,59.7,58.8,30.02,ESE,111,0.0,0.0,97,0.00,,,0.00,Wunderground v.1.15,2013-09-27 08:30:00,
2013-09-27 03:35:00,59.6,58.7,30.03,ESE,120,0.0,1.0,97,0.00,,,0.00,Wunderground v.1.15,2013-09-27 08:35:00,
2013-09-27 03:40:00,59.7,58.8,30.03,ESE,120,0.0,0.0,97,0.00,,,0.00,Wunderground v.1.15,2013-09-27 08:40:00,
2013-09-27 03:45:00,59.6,58.7,30.03,ESE,121,0.0,0.0,97,0.00,,,0.00,Wunderground v.1.15,2013-09-27 08:45:00,
2013-09-27 03:51:00,59.4,58.3,30.03,ESE,120,0.0,0.0,96,0.00,,,0.00,Wunderground v.1.15,2013-09-27 08:51:00,
2013-09-27 03:56:00,59.5,58.6,30.03,ESE,120,0.0,1.0,97,0.00,,,0.00,Wunderground v.1.15,2013-09-27 08:56:00,
2013-09-27 04:01:00,59.4,58.5,30.03,ESE,120,0.0,1.0,97,0.00,,,0.00,Wunderground v.1.15,2013-09-27 09:01:00,
2013-09-27 04:06:00,59.3,58.4,30.03,ESE,120,0.0,1.0,97,0.00,,,0.00,Wunderground v.1.15,2013-09-27 09:06:00,
2013-09-27 04:11:00,59.3,58.4,30.03,ESE,120,0.0,0.0,97,0.00,,,0.00,Wunderground v.1.15,2013-09-27 09:11:00,
2013-09-27 04:16:00,59.2,58.3,30.03,ESE,120,0.0,1.0,97,0.00,,,0.00,Wunderground v.1.15,2013-09-27 09:16:00,
2013-09-27 04:21:00,59.2,58.3,30.03,ESE,120,0.0,0.0,97,0.00,,,0.00,Wunderground v.1.15,2013-09-27 09:21:00,
2013-09-27 04:26:00,58.7,57.6,30.04,ESE,120,0.0,0.0,96,0.00,,,0.00,Wunderground v.1.15,2013-09-27 09:26:00,
2013-09-27 04:31:00,58.2,57.1,30.04,ESE,120,0.0,0.0,96,0.00,,,0.00,Wunderground v.1.15,2013-09-27 09:31:00,
2013-09-27 04:36:00,57.8,56.7,30.04,ESE,120,0.0,0.0,96,0.00,,,0.00,Wunderground v.1.15,2013-09-27 09:36:00,
2013-09-27 04:41:00,57.7,56.9,30.04,ESE,120,0.0,0.0,97,0.00,,,0.00,Wunderground v.1.15,2013-09-27 09:41:00,
2013-09-27 04:46:00,58.0,57.4,30.04,ESE,120,0.0,1.0,98,0.00,,,0.00,Wunderground v.1.15,2013-09-27 09:46:00,
2013-09-27 04:51:00,58.2,57.6,30.04,ESE,120,0.0,0.0,98,0.00,,,0.00,Wunderground v.1.15,2013-09-27 09:51:00,
2013-09-27 04:56:00,58.3,57.7,30.04,ESE,120,0.0,0.0,98,0.00,,,0.00,Wunderground v.1.15,2013-09-27 09:56:00,
2013-09-27 05:01:00,58.1,57.3,30.04,ESE,120,0.0,0.0,97,0.00,,,0.00,Wunderground v.1.15,2013-09-27 10:01:00,
2013-09-27 05:06:00,57.5,56.7,30.05,ESE,120,0.0,0.0,97,0.00,,,0.00,Wunderground v.1.15,2013-09-27 10:06:00,
2013-09-27 05:11:00,57.1,56.3,30.05,ESE,120,0.0,0.0,97,0.00,,,0.00,Wunderground v.1.15,2013-09-27 10:11:00,
2013-09-27 05:16:00,57.1,56.3,30.05,ESE,120,0.0,0.0,97,0.00,,,0.00,Wunderground v.1.15,2013-09-27 10:16:00,
2013-09-27 05:21:00,56.9,56.1,30.05,ESE,120,0.0,0.0,97,0.00,,,0.00,Wunderground v.1.15,2013-09-27 10:21:00,
2013-09-27 05:26:00,56.6,55.8,30.06,ESE,120,0.0,0.0,97,0.00,,,0.00,Wunderground v.1.15,2013-09-27 10:26:00,
2013-09-27 05:31:00,57.1,56.5,30.06,ESE,115,0.0,1.0,98,0.00,,,0.00,Wunderground v.1.15,2013-09-27 10:31:00,
2013-09-27 05:36:00,57.3,56.7,30.06,ESE,104,0.0,1.0,98,0.00,,,0.00,Wunderground v.1.15,2013-09-27 10:36:00,
2013-09-27 05:41:00,57.0,56.4,30.06,ESE,104,0.0,0.0,98,0.00,,,0.00,Wunderground v.1.15,2013-09-27 10:41:00,
2013-09-27 05:46:00,56.7,55.9,30.06,ESE,104,0.0,0.0,97,0.00,,,0.00,Wunderground v.1.15,2013-09-27 10:46:00,
2013-09-27 05:51:00,56.6,56.0,30.07,ESE,104,0.0,0.0,98,0.00,,,0.00,Wunderground v.1.15,2013-09-27 10:51:00,
2013-09-27 05:56:00,56.3,55.5,30.07,ESE,104,0.0,0.0,97,0.00,,,0.00,Wunderground v.1.15,2013-09-27 10:56:00,
2013-09-27 06:01:00,56.1,55.3,30.07,ESE,104,0.0,0.0,97,0.00,,,0.00,Wunderground v.1.15,2013-09-27 11:01:00,
2013-09-27 06:06:00,55.7,54.9,30.07,ESE,104,0.0,0.0,97,0.00,,,0.00,Wunderground v.1.15,2013-09-27 11:06:00,
2013-09-27 06:11:00,55.5,54.7,30.07,ESE,104,0.0,0.0,97,0.00,,,0.00,Wunderground v.1.15,2013-09-27 11:11:00,
2013-09-27 06:16:00,55.3,54.5,30.07,ESE,105,0.0,0.0,97,0.00,,,0.00,Wunderground v.1.15,2013-09-27 11:16:00,
2013-09-27 06:21:00,55.0,54.2,30.07,ESE,104,0.0,0.0,97,0.00,,,0.01,Wunderground v.1.15,2013-09-27 11:21:00,
2013-09-27 06:26:00,54.8,54.0,30.08,ESE,105,0.0,0.0,97,0.00,,,0.01,Wunderground v.1.15,2013-09-27 11:26:00,
2013-09-27 06:31:00,55.5,54.9,30.08,ESE,104,1.0,1.0,98,0.00,,,0.01,Wunderground v.1.15,2013-09-27 11:31:00,
2013-09-27 06:36:00,55.9,55.3,30.08,ESE,104,0.0,1.0,98,0.00,,,0.01,Wunderground v.1.15,2013-09-27 11:36:00,
2013-09-27 06:41:00,56.1,55.5,30.08,ESE,105,0.0,0.0,98,0.00,,,0.01,Wunderground v.1.15,2013-09-27 11:41:00,
2013-09-27 06:46:00,55.9,55.3,30.08,ESE,105,0.0,0.0,98,0.00,,,0.01,Wunderground v.1.15,2013-09-27 11:46:00,
2013-09-27 06:51:00,55.6,55.0,30.09,ESE,104,0.0,0.0,98,0.00,,,0.01,Wunderground v.1.15,2013-09-27 11:51:00,
2013-09-27 06:56:00,55.6,55.0,30.09,ESE,104,0.0,0.0,98,0.00,,,0.01,Wunderground v.1.15,2013-09-27 11:56:00,
2013-09-27 07:01:00,55.7,55.1,30.09,ESE,104,0.0,0.0,98,0.00,,,0.01,Wunderground v.1.15,2013-09-27 12:01:00,
2013-09-27 07:06:00,55.3,54.7,30.09,ESE,105,0.0,0.0,98,0.00,,,0.01,Wunderground v.1.15,2013-09-27 12:06:00,
2013-09-27 07:11:00,55.2,54.6,30.09,ESE,104,0.0,0.0,98,0.00,,,0.01,Wunderground v.1.15,2013-09-27 12:11:00,
2013-09-27 07:16:00,55.3,54.7,30.10,ESE,104,0.0,0.0,98,0.00,,,0.01,Wunderground v.1.15,2013-09-27 12:16:00,
2013-09-27 07:21:00,55.4,54.8,30.09,ESE,104,0.0,0.0,98,0.00,,,0.01,Wunderground v.1.15,2013-09-27 12:21:00,
2013-09-27 07:26:00,56.4,55.8,30.10,ESE,104,0.0,0.0,98,0.00,,,0.01,Wunderground v.1.15,2013-09-27 12:26:00,
2013-09-27 07:31:00,57.4,57.1,30.10,ESE,102,1.0,1.0,99,0.00,,,0.01,Wunderground v.1.15,2013-09-27 12:31:00,
2013-09-27 07:36:00,57.8,57.5,30.10,NE,51,1.0,1.0,99,0.00,,,0.01,Wunderground v.1.15,2013-09-27 12:36:00,
2013-09-27 07:41:00,58.3,58.0,30.10,ENE,58,0.0,1.0,99,0.00,,,0.01,Wunderground v.1.15,2013-09-27 12:41:00,
2013-09-27 07:47:00,58.7,58.4,30.10,NE,56,0.0,2.0,99,0.00,,,0.01,Wunderground v.1.15,2013-09-27 12:47:00,
2013-09-27 07:52:00,58.9,58.3,30.10,ENE,57,0.0,2.0,98,0.00,,,0.01,Wunderground v.1.15,2013-09-27 12:52:00,
2013-09-27 07:57:00,59.5,58.9,30.10,NE,56,0.0,2.0,98,0.00,,,0.01,Wunderground v.1.15,2013-09-27 12:57:00,
2013-09-27 08:02:00,60.3,59.7,30.10,ENE,59,0.0,1.0,98,0.00,,,0.01,Wunderground v.1.15,2013-09-27 13:02:00,
2013-09-27 08:07:00,60.8,60.2,30.10,East,93,0.0,2.0,98,0.00,,,0.01,Wunderground v.1.15,2013-09-27 13:07:00,
2013-09-27 08:12:00,61.4,60.5,30.10,East,91,1.0,2.0,97,0.00,,,0.01,Wunderground v.1.15,2013-09-27 13:12:00,
2013-09-27 08:17:00,61.8,60.4,30.10,SE,141,1.0,2.0,95,0.00,,,0.01,Wunderground v.1.15,2013-09-27 13:17:00,
2013-09-27 08:22:00,62.2,60.5,30.11,East,96,1.0,3.0,94,0.00,,,0.01,Wunderground v.1.15,2013-09-27 13:22:00,
2013-09-27 08:27:00,62.6,60.8,30.11,East,99,0.0,3.0,94,0.00,,,0.01,Wunderground v.1.15,2013-09-27 13:27:00,
2013-09-27 08:32:00,63.3,61.5,30.11,ESE,119,0.0,3.0,94,0.00,,,0.01,Wunderground v.1.15,2013-09-27 13:32:00,
2013-09-27 08:37:00,64.0,61.9,30.11,SSE,153,2.0,3.0,93,0.00,,,0.01,Wunderground v.1.15,2013-09-27 13:37:00,
2013-09-27 08:42:00,64.4,61.7,30.11,SE,127,3.0,3.0,91,0.00,,,0.01,Wunderground v.1.15,2013-09-27 13:42:00,
2013-09-27 08:47:00,64.6,61.6,30.11,East,91,3.0,5.0,90,0.00,,,0.01,Wunderground v.1.15,2013-09-27 13:47:00,
2013-09-27 08:52:00,65.1,62.1,30.11,SE,124,2.0,3.0,90,0.00,,,0.01,Wunderground v.1.15,2013-09-27 13:52:00,
2013-09-27 08:57:00,65.3,61.7,30.11,East,90,2.0,5.0,88,0.00,,,0.01,Wunderground v.1.15,2013-09-27 13:57:00,
2013-09-27 09:02:00,65.5,62.2,30.11,SE,139,2.0,3.0,89,0.00,,,0.01,Wunderground v.1.15,2013-09-27 14:02:00,
2013-09-27 09:07:00,66.0,62.7,30.11,East,100,2.0,3.0,89,0.00,,,0.01,Wunderground v.1.15,2013-09-27 14:07:00,
2013-09-27 09:12:00,66.1,62.1,30.11,ESE,108,3.0,3.0,87,0.00,,,0.01,Wunderground v.1.15,2013-09-27 14:12:00,
2013-09-27 09:17:00,66.3,62.6,30.11,East,81,1.0,3.0,88,0.00,,,0.01,Wunderground v.1.15,2013-09-27 14:17:00,
2013-09-27 09:22:00,66.7,63.0,30.11,ESE,108,1.0,2.0,88,0.00,,,0.01,Wunderground v.1.15,2013-09-27 14:22:00,
2013-09-27 09:27:00,67.2,62.9,30.11,ESE,120,1.0,4.0,86,0.00,,,0.01,Wunderground v.1.15,2013-09-27 14:27:00,
2013-09-27 09:32:00,67.7,63.7,30.11,ESE,120,0.0,1.0,87,0.00,,,0.01,Wunderground v.1.15,2013-09-27 14:32:00,
2013-09-27 09:37:00,68.2,63.9,30.11,ESE,119,0.0,3.0,86,0.00,,,0.01,Wunderground v.1.15,2013-09-27 14:37:00,
2013-09-27 09:42:00,68.8,64.1,30.11,ESE,120,1.0,2.0,85,0.00,,,0.01,Wunderground v.1.15,2013-09-27 14:42:00,
2013-09-27 09:47:00,69.1,64.4,30.11,ESE,122,0.0,2.0,85,0.00,,,0.01,Wunderground v.1.15,2013-09-27 14:47:00,
2013-09-27 09:52:00,69.6,63.9,30.11,WSW,242,1.0,1.0,82,0.00,,,0.01,Wunderground v.1.15,2013-09-27 14:52:00,
2013-09-27 09:57:00,69.7,64.3,30.11,ESE,108,1.0,3.0,83,0.00,,,0.01,Wunderground v.1.15,2013-09-27 14:57:00,
2013-09-27 10:02:00,70.3,64.5,30.11,East,99,1.0,1.0,82,0.00,,,0.01,Wunderground v.1.15,2013-09-27 15:02:00,
2013-09-27 10:07:00,70.8,64.7,30.12,ENE,60,2.0,2.0,81,0.00,,,0.01,Wunderground v.1.15,2013-09-27 15:07:00,
2013-09-27 10:12:00,71.1,63.1,30.12,ENE,78,0.0,3.0,76,0.00,,,0.01,Wunderground v.1.15,2013-09-27 15:12:00,
2013-09-27 10:17:00,71.8,64.2,30.12,SE,134,0.0,3.0,77,0.00,,,0.01,Wunderground v.1.15,2013-09-27 15:17:00,
2013-09-27 10:22:00,72.3,64.3,30.12,SE,126,0.0,1.0,76,0.00,,,0.01,Wunderground v.1.15,2013-09-27 15:22:00,
2013-09-27 10:27:00,72.3,65.1,30.11,NE,56,0.0,3.0,78,0.00,,,0.01,Wunderground v.1.15,2013-09-27 15:27:00,
2013-09-27 10:32:00,72.7,64.3,30.11,East,88,1.0,4.0,75,0.00,,,0.01,Wunderground v.1.15,2013-09-27 15:32:00,
2013-09-27 10:37:00,72.9,64.5,30.11,SE,133,0.0,4.0,75,0.00,,,0.01,Wunderground v.1.15,2013-09-27 15:37:00,
2013-09-27 10:42:00,73.2,64.0,30.11,NW,321,0.0,3.0,73,0.00,,,0.01,Wunderground v.1.15,2013-09-27 15:42:00,
2013-09-27 10:47:00,73.3,64.5,30.11,NE,40,0.0,3.0,74,0.00,,,0.01,Wunderground v.1.15,2013-09-27 15:47:00,
2013-09-27 10:52:00,73.7,63.7,30.11,East,94,1.0,4.0,71,0.00,,,0.01,Wunderground v.1.15,2013-09-27 15:52:00,
2013-09-27 10:57:00,73.8,63.4,30.11,ESE,108,0.0,4.0,70,0.00,,,0.01,Wunderground v.1.15,2013-09-27 15:57:00,
2013-09-27 11:02:00,74.0,61.0,30.11,SE,146,0.0,3.0,64,0.00,,,0.01,Wunderground v.1.15,2013-09-27 16:02:00,
2013-09-27 11:07:00,74.0,61.0,30.11,NE,43,4.0,7.0,64,0.00,,,0.01,Wunderground v.1.15,2013-09-27 16:07:00,
2013-09-27 11:12:00,74.2,61.2,30.11,ENE,77,1.0,6.0,64,0.00,,,0.01,Wunderground v.1.15,2013-09-27 16:12:00,
2013-09-27 11:18:00,74.5,60.6,30.11,SE,138,2.0,6.0,62,0.00,,,0.01,Wunderground v.1.15,2013-09-27 16:18:00,
2013-09-27 11:23:00,74.6,62.1,30.11,NE,43,1.0,3.0,65,0.00,,,0.01,Wunderground v.1.15,2013-09-27 16:23:00,
2013-09-27 11:28:00,75.0,61.1,30.11,SE,129,3.0,4.0,62,0.00,,,0.01,Wunderground v.1.15,2013-09-27 16:28:00,
2013-09-27 11:33:00,74.9,60.5,30.11,South,181,2.0,5.0,61,0.00,,,0.01,Wunderground v.1.15,2013-09-27 16:33:00,
2013-09-27 11:38:00,74.8,61.4,30.11,NNE,32,1.0,5.0,63,0.00,,,0.01,Wunderground v.1.15,2013-09-27 16:38:00,
2013-09-27 11:43:00,75.1,62.1,30.11,NNW,330,0.0,3.0,64,0.00,,,0.01,Wunderground v.1.15,2013-09-27 16:43:00,
2013-09-27 11:48:00,75.5,62.0,30.11,ESE,122,2.0,3.0,63,0.00,,,0.01,Wunderground v.1.15,2013-09-27 16:48:00,
2013-09-27 11:53:00,75.8,61.8,30.11,SE,125,1.0,3.0,62,0.00,,,0.01,Wunderground v.1.15,2013-09-27 16:53:00,
2013-09-27 11:58:00,75.8,60.9,30.10,NNE,33,1.0,5.0,60,0.00,,,0.01,Wunderground v.1.15,2013-09-27 16:58:00,
2013-09-27 12:03:00,75.7,60.8,30.10,WNW,283,0.0,2.0,60,0.00,,,0.01,Wunderground v.1.15,2013-09-27 17:03:00,
2013-09-27 12:08:00,76.3,61.4,30.10,SE,128,3.0,6.0,60,0.00,,,0.01,Wunderground v.1.15,2013-09-27 17:08:00,
2013-09-27 12:13:00,76.4,61.0,30.10,NNE,26,0.0,2.0,59,0.00,,,0.01,Wunderground v.1.15,2013-09-27 17:13:00,
2013-09-27 12:18:00,76.8,60.4,30.10,ENE,61,1.0,5.0,57,0.00,,,0.01,Wunderground v.1.15,2013-09-27 17:18:00,
2013-09-27 12:23:00,76.4,61.5,30.10,NE,41,1.0,5.0,60,0.00,,,0.01,Wunderground v.1.15,2013-09-27 17:23:00,
2013-09-27 12:26:00,76.6,60.7,30.10,ESE,113,0.0,5.0,58,0.00,,,0.01,Wunderground v.1.15,2013-09-27 17:26:00,
2013-09-27 12:31:00,76.6,59.2,30.09,SE,134,5.0,5.0,55,0.00,,,0.01,Wunderground v.1.15,2013-09-27 17:31:00,
2013-09-27 12:36:00,76.9,60.0,30.09,NNE,29,2.0,5.0,56,0.00,,,0.01,Wunderground v.1.15,2013-09-27 17:36:00,
2013-09-27 12:41:00,77.2,59.8,30.09,WNW,301,1.0,3.0,55,0.00,,,0.01,Wunderground v.1.15,2013-09-27 17:41:00,
2013-09-27 12:46:00,77.1,59.2,30.09,East,97,3.0,8.0,54,0.00,,,0.01,Wunderground v.1.15,2013-09-27 17:46:00,
2013-09-27 12:51:00,77.3,60.4,30.08,SSE,148,0.0,3.0,56,0.00,,,0.01,Wunderground v.1.15,2013-09-27 17:51:00,
2013-09-27 12:56:00,77.3,58.8,30.08,SE,127,2.0,5.0,53,0.00,,,0.01,Wunderground v.1.15,2013-09-27 17:56:00,
2013-09-27 13:01:00,77.5,59.0,30.08,SSE,167,0.0,3.0,53,0.00,,,0.01,Wunderground v.1.15,2013-09-27 18:01:00,
2013-09-27 13:06:00,78.2,58.0,30.08,ESE,115,1.0,4.0,50,0.00,,,0.01,Wunderground v.1.15,2013-09-27 18:06:00,
2013-09-27 13:11:00,78.5,59.9,30.08,SE,129,3.0,6.0,53,0.00,,,0.01,Wunderground v.1.15,2013-09-27 18:11:00,
2013-09-27 13:16:00,78.0,58.9,30.08,ESE,103,5.0,8.0,52,0.00,,,0.01,Wunderground v.1.15,2013-09-27 18:16:00,
2013-09-27 13:21:00,77.7,57.0,30.08,East,82,1.0,4.0,49,0.00,,,0.01,Wunderground v.1.15,2013-09-27 18:21:00,
2013-09-27 13:26:00,77.8,57.1,30.07,ESE,117,4.0,6.0,49,0.00,,,0.01,Wunderground v.1.15,2013-09-27 18:26:00,
2013-09-27 13:31:00,77.7,57.6,30.07,ESE,113,2.0,5.0,50,0.00,,,0.01,Wunderground v.1.15,2013-09-27 18:31:00,
2013-09-27 13:36:00,77.5,55.7,30.07,ESE,117,4.0,7.0,47,0.00,,,0.01,Wunderground v.1.15,2013-09-27 18:36:00,
2013-09-27 13:41:00,77.7,56.4,30.07,SSE,162,2.0,3.0,48,0.00,,,0.01,Wunderground v.1.15,2013-09-27 18:41:00,
2013-09-27 13:46:00,78.1,56.8,30.07,ENE,70,5.0,7.0,48,0.00,,,0.01,Wunderground v.1.15,2013-09-27 18:46:00,
2013-09-27 13:51:00,78.3,57.0,30.07,East,88,3.0,4.0,48,0.00,,,0.01,Wunderground v.1.15,2013-09-27 18:51:00,
2013-09-27 13:56:00,78.5,57.2,30.06,NE,50,2.0,7.0,48,0.00,,,0.01,Wunderground v.1.15,2013-09-27 18:56:00,
2013-09-27 14:01:00,78.8,58.0,30.06,SE,141,3.0,5.0,49,0.00,,,0.01,Wunderground v.1.15,2013-09-27 19:01:00,
2013-09-27 14:06:00,78.5,58.3,30.06,ENE,60,2.0,5.0,50,0.00,,,0.01,Wunderground v.1.15,2013-09-27 19:06:00,
2013-09-27 14:11:00,78.4,58.8,30.06,ESE,110,4.0,5.0,51,0.00,,,0.01,Wunderground v.1.15,2013-09-27 19:11:00,
2013-09-27 14:16:00,78.7,59.0,30.05,ENE,58,1.0,5.0,51,0.00,,,0.01,Wunderground v.1.15,2013-09-27 19:16:00,
2013-09-27 14:21:00,78.8,59.7,30.05,SE,135,2.0,5.0,52,0.00,,,0.01,Wunderground v.1.15,2013-09-27 19:21:00,
2013-09-27 14:26:00,79.1,58.3,30.05,ESE,105,3.0,7.0,49,0.00,,,0.01,Wunderground v.1.15,2013-09-27 19:26:00,
2013-09-27 14:31:00,79.0,59.3,30.05,NE,51,2.0,5.0,51,0.00,,,0.01,Wunderground v.1.15,2013-09-27 19:31:00,
2013-09-27 14:36:00,79.5,58.7,30.05,South,180,2.0,5.0,49,0.00,,,0.01,Wunderground v.1.15,2013-09-27 19:36:00,
2013-09-27 14:41:00,79.4,57.4,30.05,ESE,122,3.0,5.0,47,0.00,,,0.01,Wunderground v.1.15,2013-09-27 19:41:00,
2013-09-27 14:46:00,79.4,57.4,30.05,East,85,2.0,5.0,47,0.00,,,0.01,Wunderground v.1.15,2013-09-27 19:46:00,
2013-09-27 14:51:00,79.5,58.1,30.05,ENE,67,2.0,4.0,48,0.00,,,0.01,Wunderground v.1.15,2013-09-27 19:51:00,
2013-09-27 14:56:00,79.7,57.1,30.04,South,184,5.0,7.0,46,0.00,,,0.01,Wunderground v.1.15,2013-09-27 19:56:00,
2013-09-27 15:01:00,79.4,56.8,30.04,ESE,106,4.0,7.0,46,0.00,,,0.01,Wunderground v.1.15,2013-09-27 20:01:00,
2013-09-27 15:06:00,79.5,58.1,30.04,ENE,70,1.0,7.0,48,0.00,,,0.01,Wunderground v.1.15,2013-09-27 20:06:00,
2013-09-27 15:11:00,79.8,56.6,30.04,ESE,114,3.0,4.0,45,0.00,,,0.01,Wunderground v.1.15,2013-09-27 20:11:00,
2013-09-27 15:16:00,79.7,57.1,30.04,East,95,2.0,6.0,46,0.00,,,0.01,Wunderground v.1.15,2013-09-27 20:16:00,
2013-09-27 15:21:00,79.7,57.7,30.04,South,170,2.0,5.0,47,0.00,,,0.01,Wunderground v.1.15,2013-09-27 20:21:00,
2013-09-27 15:26:00,80.3,58.8,30.03,ESE,114,1.0,5.0,48,0.00,,,0.01,Wunderground v.1.15,2013-09-27 20:26:00,
2013-09-27 15:31:00,80.2,58.1,30.03,ENE,73,0.0,5.0,47,0.00,,,0.01,Wunderground v.1.15,2013-09-27 20:31:00,
2013-09-27 15:36:00,80.2,60.4,30.03,SE,134,3.0,5.0,51,0.00,,,0.01,Wunderground v.1.15,2013-09-27 20:36:00,
2013-09-27 15:41:00,79.9,59.0,30.03,ESE,117,1.0,5.0,49,0.00,,,0.01,Wunderground v.1.15,2013-09-27 20:41:00,
2013-09-27 15:46:00,79.9,60.2,30.03,ENE,76,3.0,5.0,51,0.00,,,0.01,Wunderground v.1.15,2013-09-27 20:46:00,
2013-09-27 15:51:00,80.1,60.9,30.03,NE,54,1.0,2.0,52,0.00,,,0.01,Wunderground v.1.15,2013-09-27 20:51:00,
2013-09-27 15:56:00,80.0,60.8,30.03,SSE,152,3.0,6.0,52,0.00,,,0.01,Wunderground v.1.15,2013-09-27 20:56:00,
2013-09-27 16:01:00,80.3,60.5,30.03,SSE,148,0.0,3.0,51,0.00,,,0.01,Wunderground v.1.15,2013-09-27 21:01:00,
2013-09-27 16:06:00,80.4,59.5,30.03,East,97,3.0,6.0,49,0.00,,,0.01,Wunderground v.1.15,2013-09-27 21:06:00,
2013-09-27 16:11:00,79.7,60.0,30.03,SSE,153,5.0,7.0,51,0.00,,,0.01,Wunderground v.1.15,2013-09-27 21:11:00,
2013-09-27 16:16:00,79.5,59.8,30.03,South,177,2.0,7.0,51,0.00,,,0.01,Wunderground v.1.15,2013-09-27 21:16:00,
2013-09-27 16:21:00,79.5,59.8,30.03,SE,138,3.0,4.0,51,0.00,,,0.01,Wunderground v.1.15,2013-09-27 21:21:00,
2013-09-27 16:26:00,79.6,59.9,30.03,SE,132,1.0,5.0,51,0.00,,,0.01,Wunderground v.1.15,2013-09-27 21:26:00,
2013-09-27 16:31:00,79.6,59.3,30.03,East,99,2.0,4.0,50,0.00,,,0.01,Wunderground v.1.15,2013-09-27 21:31:00,
2013-09-27 16:36:00,79.6,59.9,30.03,SE,145,3.0,5.0,51,0.00,,,0.01,Wunderground v.1.15,2013-09-27 21:36:00,
2013-09-27 16:42:00,79.6,58.2,30.03,SE,134,1.0,3.0,48,0.00,,,0.01,Wunderground v.1.15,2013-09-27 21:42:00,
2013-09-27 16:47:00,80.1,59.8,30.03,SE,129,0.0,3.0,50,0.00,,,0.01,Wunderground v.1.15,2013-09-27 21:47:00,
2013-09-27 16:52:00,80.0,59.1,30.04,ESE,122,5.0,5.0,49,0.00,,,0.01,Wunderground v.1.15,2013-09-27 21:52:00,
2013-09-27 16:57:00,79.7,59.4,30.04,East,89,2.0,5.0,50,0.00,,,0.01,Wunderground v.1.15,2013-09-27 21:57:00,
2013-09-27 17:02:00,79.6,58.8,30.04,ESE,115,1.0,3.0,49,0.00,,,0.01,Wunderground v.1.15,2013-09-27 22:02:00,
2013-09-27 17:07:00,79.5,59.2,30.04,ESE,116,0.0,4.0,50,0.00,,,0.01,Wunderground v.1.15,2013-09-27 22:07:00,
2013-09-27 17:12:00,79.9,57.9,30.04,SSE,156,2.0,4.0,47,0.00,,,0.01,Wunderground v.1.15,2013-09-27 22:12:00,
2013-09-27 17:17:00,79.7,58.3,30.04,SSE,152,1.0,4.0,48,0.00,,,0.01,Wunderground v.1.15,2013-09-27 22:17:00,
2013-09-27 17:22:00,79.6,57.0,30.04,SSE,155,2.0,3.0,46,0.00,,,0.01,Wunderground v.1.15,2013-09-27 22:22:00,
2013-09-27 17:27:00,79.7,59.4,30.04,SSE,147,0.0,4.0,50,0.00,,,0.01,Wunderground v.1.15,2013-09-27 22:27:00,
2013-09-27 17:32:00,79.8,58.9,30.04,SSE,153,0.0,2.0,49,0.00,,,0.01,Wunderground v.1.15,2013-09-27 22:32:00,
2013-09-27 17:37:00,80.5,59.6,30.04,SSE,150,0.0,2.0,49,0.00,,,0.01,Wunderground v.1.15,2013-09-27 22:37:00,
2013-09-27 17:42:00,81.0,58.9,30.04,SSE,155,2.0,2.0,47,0.00,,,0.01,Wunderground v.1.15,2013-09-27 22:42:00,
2013-09-27 17:47:00,80.0,59.1,30.04,SE,145,1.0,2.0,49,0.00,,,0.01,Wunderground v.1.15,2013-09-27 22:47:00,
2013-09-27 17:52:00,79.6,58.8,30.04,SE,146,0.0,1.0,49,0.00,,,0.01,Wunderground v.1.15,2013-09-27 22:52:00,
2013-09-27 17:57:00,79.7,60.5,30.04,SE,143,0.0,1.0,52,0.00,,,0.01,Wunderground v.1.15,2013-09-27 22:57:00,
2013-09-27 18:02:00,79.5,61.4,30.04,SE,144,0.0,1.0,54,0.00,,,0.01,Wunderground v.1.15,2013-09-27 23:02:00,
2013-09-27 18:07:00,79.6,62.5,30.04,SE,144,0.0,1.0,56,0.00,,,0.01,Wunderground v.1.15,2013-09-27 23:07:00,
2013-09-27 18:12:00,79.4,62.3,30.04,SE,144,0.0,0.0,56,0.00,,,0.01,Wunderground v.1.15,2013-09-27 23:12:00,
2013-09-27 18:17:00,78.3,62.3,30.04,SE,143,0.0,0.0,58,0.00,,,0.01,Wunderground v.1.15,2013-09-27 23:17:00,
2013-09-27 18:22:00,77.8,62.3,30.04,SE,144,0.0,0.0,59,0.00,,,0.01,Wunderground v.1.15,2013-09-27 23:22:00,
2013-09-27 18:27:00,76.9,62.4,30.04,SE,144,0.0,0.0,61,0.00,,,0.01,Wunderground v.1.15,2013-09-27 23:27:00,
2013-09-27 18:32:00,76.1,62.1,30.04,SE,144,0.0,0.0,62,0.00,,,0.01,Wunderground v.1.15,2013-09-27 23:32:00,
2013-09-27 18:37:00,74.8,61.8,30.04,SE,143,0.0,0.0,64,0.00,,,0.01,Wunderground v.1.15,2013-09-27 23:37:00,
2013-09-27 18:42:00,73.2,61.2,30.04,ESE,117,1.0,1.0,66,0.00,,,0.01,Wunderground v.1.15,2013-09-27 23:42:00,
2013-09-27 18:47:00,71.5,60.8,30.04,ESE,115,0.0,1.0,69,0.00,,,0.01,Wunderground v.1.15,2013-09-27 23:47:00,
2013-09-27 18:52:00,70.6,60.7,30.04,ESE,116,0.0,0.0,71,0.00,,,0.01,Wunderground v.1.15,2013-09-27 23:52:00,
2013-09-27 18:57:00,69.8,60.8,30.04,ESE,115,0.0,0.0,73,0.00,,,0.01,Wunderground v.1.15,2013-09-27 23:57:00,
2013-09-27 19:02:00,69.0,61.1,30.04,ESE,115,0.0,0.0,76,0.00,,,0.01,Wunderground v.1.15,2013-09-28 00:02:00,
2013-09-27 19:07:00,68.3,60.8,30.03,ESE,115,0.0,0.0,77,0.00,,,0.01,Wunderground v.1.15,2013-09-28 00:07:00,
2013-09-27 19:12:00,67.8,60.7,30.04,ESE,115,0.0,1.0,78,0.00,,,0.01,Wunderground v.1.15,2013-09-28 00:12:00,
2013-09-27 19:17:00,67.3,60.9,30.03,ESE,115,0.0,1.0,80,0.00,,,0.01,Wunderground v.1.15,2013-09-28 00:17:00,
2013-09-27 19:22:00,67.1,61.1,30.03,ESE,115,0.0,0.0,81,0.00,,,0.01,Wunderground v.1.15,2013-09-28 00:22:00,
2013-09-27 19:27:00,66.7,61.0,30.03,ESE,115,0.0,0.0,82,0.00,,,0.01,Wunderground v.1.15,2013-09-28 00:27:00,
2013-09-27 19:32:00,66.4,61.1,30.03,ESE,115,0.0,0.0,83,0.00,,,0.01,Wunderground v.1.15,2013-09-28 00:32:00,
2013-09-27 19:37:00,66.0,60.7,30.03,ESE,115,0.0,0.0,83,0.00,,,0.01,Wunderground v.1.15,2013-09-28 00:37:00,
2013-09-27 19:42:00,65.6,60.6,30.03,ESE,115,0.0,0.0,84,0.00,,,0.01,Wunderground v.1.15,2013-09-28 00:42:00,
2013-09-27 19:47:00,65.3,60.7,30.03,ESE,115,0.0,0.0,85,0.00,,,0.01,Wunderground v.1.15,2013-09-28 00:47:00,
2013-09-27 19:52:00,64.8,60.2,30.03,ESE,115,0.0,0.0,85,0.00,,,0.01,Wunderground v.1.15,2013-09-28 00:52:00,
2013-09-27 19:57:00,64.4,60.1,30.04,ESE,116,0.0,0.0,86,0.00,,,0.01,Wunderground v.1.15,2013-09-28 00:57:00,
2013-09-27 20:02:00,64.1,60.5,30.04,ESE,115,0.0,0.0,88,0.00,,,0.01,Wunderground v.1.15,2013-09-28 01:02:00,
2013-09-27 20:07:00,64.2,60.6,30.04,ESE,115,0.0,0.0,88,0.00,,,0.01,Wunderground v.1.15,2013-09-28 01:07:00,
2013-09-27 20:12:00,64.4,60.4,30.04,ESE,116,0.0,0.0,87,0.00,,,0.01,Wunderground v.1.15,2013-09-28 01:12:00,
2013-09-27 20:17:00,64.3,60.3,30.04,ESE,115,0.0,0.0,87,0.00,,,0.01,Wunderground v.1.15,2013-09-28 01:17:00,
2013-09-27 20:22:00,64.1,60.2,30.04,ESE,116,0.0,0.0,87,0.00,,,0.01,Wunderground v.1.15,2013-09-28 01:22:00,
2013-09-27 20:27:00,63.8,60.2,30.04,ESE,116,0.0,0.0,88,0.00,,,0.01,Wunderground v.1.15,2013-09-28 01:27:00,
2013-09-27 20:32:00,63.4,60.1,30.05,ESE,116,0.0,0.0,89,0.00,,,0.01,Wunderground v.1.15,2013-09-28 01:32:00,
2013-09-27 20:37:00,63.0,59.7,30.05,ESE,116,0.0,0.0,89,0.00,,,0.01,Wunderground v.1.15,2013-09-28 01:37:00,
2013-09-27 20:42:00,62.8,59.8,30.05,ESE,116,0.0,0.0,90,0.00,,,0.01,Wunderground v.1.15,2013-09-28 01:42:00,
2013-09-27 20:47:00,62.5,59.5,30.05,ESE,116,0.0,0.0,90,0.00,,,0.01,Wunderground v.1.15,2013-09-28 01:47:00,
2013-09-27 20:52:00,62.3,59.6,30.05,ESE,115,0.0,0.0,91,0.00,,,0.01,Wunderground v.1.15,2013-09-28 01:52:00,
2013-09-27 20:57:00,62.0,59.3,30.05,ESE,116,0.0,0.0,91,0.00,,,0.01,Wunderground v.1.15,2013-09-28 01:57:00,
2013-09-27 21:02:00,61.6,58.9,30.05,ESE,116,0.0,0.0,91,0.00,,,0.01,Wunderground v.1.15,2013-09-28 02:02:00,
2013-09-27 21:07:00,61.3,59.0,30.05,ESE,115,0.0,0.0,92,0.00,,,0.01,Wunderground v.1.15,2013-09-28 02:07:00,
2013-09-27 21:13:00,61.0,58.7,30.05,ESE,116,0.0,0.0,92,0.00,,,0.01,Wunderground v.1.15,2013-09-28 02:13:00,
2013-09-27 21:17:00,60.8,58.5,30.05,ESE,116,0.0,0.0,92,0.00,,,0.01,Wunderground v.1.15,2013-09-28 02:17:00,
2013-09-27 21:22:00,60.5,58.5,30.05,ESE,116,0.0,0.0,93,0.00,,,0.01,Wunderground v.1.15,2013-09-28 02:22:00,
2013-09-27 21:27:00,60.4,58.7,30.05,ESE,116,0.0,0.0,94,0.00,,,0.01,Wunderground v.1.15,2013-09-28 02:27:00,
2013-09-27 21:32:00,60.7,59.0,30.05,ESE,116,0.0,0.0,94,0.00,,,0.01,Wunderground v.1.15,2013-09-28 02:32:00,
2013-09-27 21:37:00,60.9,59.2,30.05,ESE,116,0.0,0.0,94,0.00,,,0.01,Wunderground v.1.15,2013-09-28 02:37:00,
2013-09-27 21:42:00,61.1,59.7,30.05,ESE,116,0.0,0.0,95,0.00,,,0.01,Wunderground v.1.15,2013-09-28 02:42:00,
2013-09-27 21:47:00,61.0,59.3,30.05,ESE,116,0.0,0.0,94,0.00,,,0.01,Wunderground v.1.15,2013-09-28 02:47:00,
2013-09-27 21:52:00,61.0,59.6,30.05,ESE,115,0.0,0.0,95,0.00,,,0.01,Wunderground v.1.15,2013-09-28 02:52:00,
2013-09-27 21:57:00,60.9,59.2,30.05,ESE,116,0.0,0.0,94,0.00,,,0.01,Wunderground v.1.15,2013-09-28 02:57:00,
2013-09-27 22:02:00,60.7,59.3,30.05,ESE,115,0.0,0.0,95,0.00,,,0.01,Wunderground v.1.15,2013-09-28 03:02:00,
2013-09-27 22:07:00,60.5,59.1,30.05,ESE,115,0.0,0.0,95,0.00,,,0.01,Wunderground v.1.15,2013-09-28 03:07:00,
2013-09-27 22:12:00,60.4,59.0,30.05,ESE,116,0.0,0.0,95,0.00,,,0.01,Wunderground v.1.15,2013-09-28 03:12:00,
2013-09-27 22:17:00,60.3,58.9,30.05,ESE,116,0.0,0.0,95,0.00,,,0.01,Wunderground v.1.15,2013-09-28 03:17:00,
2013-09-27 22:22:00,60.4,59.0,30.05,ESE,116,0.0,0.0,95,0.00,,,0.01,Wunderground v.1.15,2013-09-28 03:22:00,
2013-09-27 22:27:00,60.3,58.9,30.05,ESE,116,0.0,0.0,95,0.00,,,0.01,Wunderground v.1.15,2013-09-28 03:27:00,
2013-09-27 22:32:00,60.1,59.0,30.05,ESE,115,0.0,0.0,96,0.00,,,0.01,Wunderground v.1.15,2013-09-28 03:32:00,
2013-09-27 22:37:00,60.1,59.0,30.05,ESE,116,0.0,0.0,96,0.00,,,0.01,Wunderground v.1.15,2013-09-28 03:37:00,
2013-09-27 22:42:00,60.0,58.9,30.05,ESE,116,0.0,0.0,96,0.00,,,0.01,Wunderground v.1.15,2013-09-28 03:42:00,
2013-09-27 22:47:00,59.9,58.8,30.05,ESE,115,0.0,0.0,96,0.00,,,0.01,Wunderground v.1.15,2013-09-28 03:47:00,
2013-09-27 22:52:00,59.8,58.7,30.05,ESE,116,0.0,0.0,96,0.00,,,0.01,Wunderground v.1.15,2013-09-28 03:52:00,
2013-09-27 22:57:00,59.8,58.7,30.05,ESE,116,0.0,0.0,96,0.00,,,0.01,Wunderground v.1.15,2013-09-28 03:57:00,
2013-09-27 23:01:00,59.7,58.6,30.05,ESE,115,0.0,0.0,96,0.00,,,0.01,Wunderground v.1.15,2013-09-28 04:01:00,
2013-09-27 23:06:00,59.6,58.5,30.05,ESE,115,0.0,0.0,96,0.00,,,0.01,Wunderground v.1.15,2013-09-28 04:06:00,
2013-09-27 23:11:00,59.4,58.3,30.05,ESE,116,0.0,0.0,96,0.00,,,0.01,Wunderground v.1.15,2013-09-28 04:11:00,
2013-09-27 23:16:00,59.4,58.3,30.05,ESE,115,0.0,0.0,96,0.00,,,0.01,Wunderground v.1.15,2013-09-28 04:16:00,
2013-09-27 23:21:00,59.6,58.7,30.05,ESE,116,0.0,0.0,97,0.00,,,0.01,Wunderground v.1.15,2013-09-28 04:21:00,
2013-09-27 23:26:00,59.7,58.8,30.05,ESE,116,0.0,0.0,97,0.00,,,0.01,Wunderground v.1.15,2013-09-28 04:26:00,
2013-09-27 23:31:00,59.7,58.8,30.05,ESE,115,0.0,0.0,97,0.00,,,0.01,Wunderground v.1.15,2013-09-28 04:31:00,
2013-09-27 23:36:00,59.7,58.8,30.05,ESE,115,0.0,0.0,97,0.00,,,0.01,Wunderground v.1.15,2013-09-28 04:36:00,
2013-09-27 23:41:00,59.8,58.9,30.05,ESE,116,0.0,0.0,97,0.00,,,0.01,Wunderground v.1.15,2013-09-28 04:41:00,
2013-09-27 23:47:00,59.9,59.0,30.05,ESE,115,0.0,0.0,97,0.00,,,0.01,Wunderground v.1.15,2013-09-28 04:47:00,
2013-09-27 23:51:00,60.1,59.2,30.05,ESE,115,0.0,0.0,97,0.00,,,0.01,Wunderground v.1.15,2013-09-28 04:51:00,
2013-09-27 23:56:00,60.2,59.3,30.05,ESE,116,0.0,0.0,97,0.00,,,0.01,Wunderground v.1.15,2013-09-28 04:56:00,